Portada
METAR-TAF:

METAR-TAF

Aeroports :

Portsmouth International Airport at Pease

Portsmouth, Nova Hampshire, Estats Units d'Amèrica

latitud: 43-05N, longitud: 070-49W, altitud: 31 m

Observació

L'informe es va fer fa 53 minuts, a les 23:56 UTC
Vent 3 kt del Sud-Est
Temperatura 27°C
Humitat 58%
Pressió 1013 hPa
Visibilitat: 16.1 km
Núvols disperses a una alçada de 6000 ft
Cel ennuvolat a una alçada de 25000 ft

METAR: KPSM 102356Z 14003KT 10SM SCT060 BKN250 27/18 A2990 RMK AO2A SLP127 T02650183 10336 20265 55000

Hora: 20:49 (00:49 UTC)

Pronòstic

L'informe es va fer fa 1 hora i 25 minuts, a les 23:24 UTC
Pronòstic vàlid del 11 a les 00 UTC al 11 a les 24 UTC
Vent 4 kt del Oest
Visibilitat: 10 km
Cel ennuvolat a una alçada de 25000 ft
A partir de les 11 a les 1600 UTC
Vent 9 kt del Sud
Visibilitat: 10 km
Cel ennuvolat a una alçada de 25000 ft

TAF: KPSM 102324Z 1100/1124 26004KT P6SM BKN250 FM111600 19009KT P6SM BKN250

Observacions i pronòstics meteorològics de més de 4000 aeroports (METAR i TAF).

Les estacions disponibles són els punts grocs i vermells al mapa.

Posi el ratolí al punt desitjat per veure el nom de l'estació.

Feu clic per veure les observacions i els pronòstics meteorològics.

Per canviar el mapa: feu clic els botons verds amb una creu de color negre per apropar; al botó verd amb un guió per allunyar la imatge; o en les fletxes verdes per a mapes adjacents.


METAR-TAF: